Airfield :
LOGIN :

Register | Disclaimer

   EN    FR    IT 

 










Legend :    VFR   Marginal VFR   IFR   Intensive IFR   Very Intensive IFR
Visi :
Ceiling :
>= 8 km
>= 3000ft
5 to 8 km
1000 to 3000 ft
1500m to 5 km
500 to 1000 ft
800 to 1500m
200 to 500 ft
< 800m
< 200 ft
Symbols :   Thunderstorms  Fog  Heavy snow  Heavy precipitations  Wind > 20 kt
SIGMETs :     Misc.  Thunderstorms  Icing  Turbulence  Mountain Waves  Volcanic Ashes






- Airport Elevation : 37 ft


EHVL - Vlieland Heliport

CURRENT METAR :
  • 131459Z AUTO 28013KT 9999 +DZRA FEW021 SCT026 BKN029 15/14 Q1009 BLU

EXPIRED METARs :
  • 131443Z AUTO 27013KT 9999 DZRA FEW011 SCT021 BKN025 16/14 Q1009 BLU
  • 131425Z AUTO 28012KT 9999 FEW008 SCT019 BKN026 16/14 Q1009 BLU
  • 131429Z AUTO 28012KT 9999 FEW008 BKN019 BKN025 16/13 Q1009 WHT
  • 131355Z AUTO 29012KT 9999 FEW010 BKN037 OVC093 16/14 Q1008 BLU
  • 131333Z AUTO 29014KT 9999 FEW017 SCT022 OVC039 17/14 Q1008 BLU
  • 131325Z AUTO 29016KT 250V310 9999 FEW009 SCT011 BKN013 17/14 Q1008 GRN
  • 131300Z AUTO 27018KT 9999 SCT011 SCT014 BKN037 17/14 Q1008 BLU
  • 131255Z AUTO 26018KT 9999 FEW011 SCT013 BKN020 18/14 Q1008 WHT
  • 131231Z AUTO 26016KT 9999 -RA BKN012 OVC016 16/14 Q1008 GRN
  • 131155Z AUTO 27012KT 9999 FEW011 SCT014 OVC110 18/14 Q1008 BLU
  • 131130Z AUTO 28012KT 9999 FEW011 SCT018 OVC110 18/14 Q1008 BLU
  • 131113Z AUTO 28011KT 9999 SCT010 BKN013 BKN018 18/15 Q1008 GRN
  • 131055Z AUTO 28012KT 9999 FEW009 SCT088 OVC100 17/14 Q1008 BLU
  • 131042Z AUTO 28010KT 9999 BKN010 BKN013 OVC083 17/14 Q1008 GRN
  • 131041Z AUTO 28010KT 9999 SCT010 SCT013 OVC082 17/14 Q1008 BLU
  • 131005Z AUTO 29011KT 9999 FEW009 SCT010 BKN068 16/14 Q1008 BLU

Expired Forecast.



MET'MAP, your aeronautical weather chart ! - Copyright ORBIFLY December 2007 - Disclaimer

ORBIFLY MET'MAP TEAM :

Programming & Development : Alexandra Zaïnal
Original concept : Baudouin d'Aumeries
Technical & hardware support : Manuel Goepfert
Assistance : Marc-Olivier Méhu




SOURCES & CREDITS :

   NOAA